createdAt,value
2017-11-28T00:02:15.412Z,7.40
2017-11-28T00:04:43.232Z,7.40
2017-11-28T00:07:10.682Z,7.40
2017-11-28T00:09:38.141Z,7.40
2017-11-28T00:12:05.545Z,7.40
2017-11-28T00:14:33.333Z,7.40
2017-11-28T00:17:00.845Z,7.40
2017-11-28T00:19:28.282Z,7.40
2017-11-28T00:21:55.798Z,7.40
2017-11-28T00:24:23.338Z,7.40
2017-11-28T00:26:50.806Z,7.40
2017-11-28T00:29:18.240Z,7.40
2017-11-28T00:31:45.682Z,7.40
2017-11-28T00:34:13.589Z,7.30
2017-11-28T00:36:41.041Z,7.30
2017-11-28T00:39:08.484Z,7.30
2017-11-28T00:41:36.062Z,7.30
2017-11-28T00:44:03.523Z,7.30
2017-11-28T00:46:30.931Z,7.30
2017-11-28T00:48:58.398Z,7.30
2017-11-28T00:51:25.833Z,7.30
2017-11-28T00:53:53.248Z,7.20
2017-11-28T00:56:20.719Z,7.20
2017-11-28T00:58:48.149Z,7.20
2017-11-28T01:01:15.977Z,7.20
2017-11-28T01:03:43.561Z,7.20
2017-11-28T01:06:10.984Z,7.30
2017-11-28T01:08:38.463Z,7.20
2017-11-28T01:11:05.925Z,7.20
2017-11-28T01:13:33.609Z,7.20
2017-11-28T01:16:01.059Z,7.20
2017-11-28T01:18:28.510Z,7.20
2017-11-28T01:20:55.948Z,7.20
2017-11-28T01:23:23.352Z,7.20
2017-11-28T01:25:50.808Z,7.20
2017-11-28T01:28:18.229Z,7.20
2017-11-28T01:30:45.655Z,7.10
2017-11-28T01:33:13.101Z,7.10
2017-11-28T01:35:40.533Z,7.20
2017-11-28T01:38:08.091Z,7.10
2017-11-28T01:40:35.552Z,7.10
2017-11-28T01:43:03.027Z,7.20
2017-11-28T01:45:30.438Z,7.20
2017-11-28T01:47:57.954Z,7.20
2017-11-28T01:50:25.386Z,7.20
2017-11-28T01:52:52.862Z,7.20
2017-11-28T01:55:20.338Z,7.20
2017-11-28T01:57:47.755Z,7.10
2017-11-28T02:00:15.605Z,7.20
2017-11-28T02:02:43.030Z,7.20
2017-11-28T02:05:12.572Z,7.20
2017-11-28T02:07:40.062Z,7.10
2017-11-28T02:10:07.869Z,7.10
2017-11-28T02:12:35.285Z,7.20
2017-11-28T02:15:03.189Z,7.10
2017-11-28T02:17:31.138Z,7.10
2017-11-28T02:19:58.957Z,7.10
2017-11-28T02:22:26.392Z,7.10
2017-11-28T02:24:53.814Z,7.10
2017-11-28T02:27:22.083Z,7.10
2017-11-28T02:29:49.509Z,7.10
2017-11-28T02:32:16.962Z,7.10
2017-11-28T02:34:44.531Z,7.00
2017-11-28T02:37:11.993Z,7.00
2017-11-28T02:39:45.421Z,7.10
2017-11-28T02:42:12.958Z,7.10
2017-11-28T02:44:40.380Z,7.10
2017-11-28T02:47:08.286Z,7.00
2017-11-28T02:49:42.115Z,7.00
2017-11-28T02:52:09.555Z,7.00
2017-11-28T02:54:46.939Z,7.10
2017-11-28T02:57:14.355Z,7.10
2017-11-28T02:59:42.667Z,7.00
2017-11-28T03:02:10.101Z,7.00
2017-11-28T03:04:37.909Z,7.00
2017-11-28T03:07:05.382Z,7.10
2017-11-28T03:09:36.501Z,7.00
2017-11-28T03:12:14.134Z,7.00
2017-11-28T03:14:46.883Z,6.90
2017-11-28T03:17:14.774Z,6.90
2017-11-28T03:19:47.622Z,6.90
2017-11-28T03:22:35.880Z,6.80
2017-11-28T03:25:20.864Z,6.90
2017-11-28T03:27:51.751Z,6.80
2017-11-28T03:30:20.300Z,6.80
2017-11-28T03:32:47.717Z,6.70
2017-11-28T03:35:15.201Z,6.70
2017-11-28T03:37:42.629Z,6.70
2017-11-28T03:40:10.487Z,6.70
2017-11-28T03:42:38.317Z,6.70
2017-11-28T03:45:27.338Z,6.80
2017-11-28T03:47:54.818Z,6.70
2017-11-28T03:50:22.373Z,6.70
2017-11-28T03:52:49.834Z,6.80
2017-11-28T03:55:17.244Z,6.70
2017-11-28T03:57:44.664Z,6.70
2017-11-28T04:00:12.097Z,6.70
2017-11-28T04:02:39.524Z,6.70
2017-11-28T04:05:06.934Z,6.70
2017-11-28T04:07:34.364Z,6.70
2017-11-28T04:10:03.098Z,6.70
2017-11-28T04:12:30.557Z,6.70
2017-11-28T04:14:58.003Z,6.70
2017-11-28T04:17:25.510Z,6.70
2017-11-28T04:19:52.947Z,6.70
2017-11-28T04:22:20.425Z,6.70
2017-11-28T04:24:47.870Z,6.60
2017-11-28T04:27:15.282Z,6.60
2017-11-28T04:29:42.801Z,6.60
2017-11-28T04:32:10.232Z,6.60
2017-11-28T04:34:37.710Z,6.60
2017-11-28T04:37:05.173Z,6.60
2017-11-28T04:39:32.633Z,6.70
2017-11-28T04:42:00.076Z,6.60
2017-11-28T04:44:27.493Z,6.60
2017-11-28T04:46:55.030Z,6.70
2017-11-28T04:49:22.484Z,6.60
2017-11-28T04:51:49.901Z,6.60
2017-11-28T04:54:17.810Z,6.50
2017-11-28T04:56:46.194Z,6.50
2017-11-28T04:59:13.660Z,6.50
2017-11-28T05:01:41.126Z,6.50
2017-11-28T05:04:08.556Z,6.60
2017-11-28T05:06:36.459Z,6.50
2017-11-28T05:09:03.918Z,6.40
2017-11-28T05:11:31.385Z,6.50
2017-11-28T05:13:58.868Z,6.40
2017-11-28T05:16:26.316Z,6.40
2017-11-28T05:18:53.734Z,6.40
2017-11-28T05:21:21.550Z,6.40
2017-11-28T05:23:48.971Z,6.40
2017-11-28T05:26:16.452Z,6.40
2017-11-28T05:28:43.916Z,6.40
2017-11-28T05:31:11.344Z,6.50
2017-11-28T05:33:39.161Z,6.50
2017-11-28T05:36:06.817Z,6.50
2017-11-28T05:38:34.242Z,6.50
2017-11-28T05:41:02.145Z,6.60
2017-11-28T05:43:29.562Z,6.60
2017-11-28T05:45:58.090Z,6.60
2017-11-28T05:48:25.527Z,6.60
2017-11-28T05:50:53.343Z,6.50
2017-11-28T05:53:21.555Z,6.50
2017-11-28T05:55:49.068Z,6.50
2017-11-28T05:58:16.498Z,6.50
2017-11-28T06:00:44.398Z,6.50
2017-11-28T06:03:11.861Z,6.50
2017-11-28T06:05:39.278Z,6.50
2017-11-28T06:08:13.826Z,6.50
2017-11-28T06:10:41.325Z,6.50
2017-11-28T06:13:10.963Z,6.50
2017-11-28T06:15:38.389Z,6.60
2017-11-28T06:18:05.948Z,6.60
2017-11-28T06:20:33.356Z,6.70
2017-11-28T06:23:00.770Z,6.70
2017-11-28T06:25:28.262Z,6.70
2017-11-28T06:27:55.797Z,6.80
2017-11-28T06:30:23.257Z,6.80
2017-11-28T06:32:50.697Z,6.80
2017-11-28T06:35:18.151Z,6.80
2017-11-28T06:37:46.044Z,6.80
2017-11-28T06:40:13.488Z,6.80
2017-11-28T06:42:40.909Z,6.80
2017-11-28T06:45:08.433Z,6.90
2017-11-28T06:47:35.893Z,6.90
2017-11-28T06:50:03.365Z,6.90
2017-11-28T06:52:30.783Z,6.90
2017-11-28T06:54:58.925Z,6.90
2017-11-28T06:57:26.353Z,6.90
2017-11-28T06:59:57.397Z,6.90
2017-11-28T07:02:24.835Z,7.00
2017-11-28T07:04:52.654Z,7.00
2017-11-28T07:07:20.066Z,7.00
2017-11-28T07:09:47.971Z,7.00
2017-11-28T07:12:15.388Z,7.10
2017-11-28T07:14:43.215Z,7.10
2017-11-28T07:17:10.663Z,7.10
2017-11-28T07:19:38.122Z,7.10
2017-11-28T07:22:05.590Z,7.20
2017-11-28T07:24:33.039Z,7.20
2017-11-28T07:27:00.461Z,7.20
2017-11-28T07:29:28.286Z,7.20
2017-11-28T07:31:55.702Z,7.20
2017-11-28T07:34:23.599Z,7.20
2017-11-28T07:36:51.067Z,7.20
2017-11-28T07:39:18.493Z,7.30
2017-11-28T07:41:46.326Z,7.20
2017-11-28T07:44:13.778Z,7.30
2017-11-28T07:46:41.193Z,7.20
2017-11-28T07:49:09.030Z,7.20
2017-11-28T07:51:36.453Z,7.30
2017-11-28T07:54:03.859Z,7.30
2017-11-28T07:56:31.294Z,7.30
2017-11-28T07:58:58.733Z,7.30
2017-11-28T08:01:26.158Z,7.30
2017-11-28T08:03:54.001Z,7.30
2017-11-28T08:06:21.445Z,7.30
2017-11-28T08:08:49.301Z,7.30
2017-11-28T08:11:16.758Z,7.30
2017-11-28T08:13:44.226Z,7.30
2017-11-28T08:16:11.678Z,7.20
2017-11-28T08:18:39.111Z,7.20
2017-11-28T08:21:06.510Z,7.20
2017-11-28T08:23:33.938Z,7.10
2017-11-28T08:26:01.754Z,7.10
2017-11-28T08:28:29.193Z,7.10
2017-11-28T08:30:56.626Z,7.00
2017-11-28T08:33:24.434Z,7.10
2017-11-28T08:35:51.870Z,7.00
2017-11-28T08:38:19.290Z,7.10
2017-11-28T08:40:46.709Z,7.00
2017-11-28T08:43:14.149Z,7.00
2017-11-28T08:45:41.970Z,7.00
2017-11-28T08:48:09.404Z,7.00
2017-11-28T08:50:36.827Z,7.00
2017-11-28T08:53:04.852Z,7.10
2017-11-28T08:55:32.627Z,7.10
2017-11-28T08:58:00.034Z,7.10
2017-11-28T09:00:27.845Z,7.10
2017-11-28T09:02:55.305Z,7.10
2017-11-28T09:05:22.778Z,7.10
2017-11-28T09:07:50.630Z,7.10
2017-11-28T09:10:18.065Z,7.00
2017-11-28T09:12:45.882Z,7.10
2017-11-28T09:15:13.320Z,7.10
2017-11-28T09:17:40.883Z,7.10
2017-11-28T09:20:08.291Z,7.10
2017-11-28T09:22:37.262Z,7.10
2017-11-28T09:25:04.670Z,7.10
2017-11-28T09:27:32.493Z,7.20
2017-11-28T09:29:59.909Z,7.20
2017-11-28T09:32:27.726Z,7.30
2017-11-28T09:34:55.169Z,7.30
2017-11-28T09:37:22.605Z,7.30
2017-11-28T09:39:51.385Z,7.30
2017-11-28T09:42:19.218Z,7.40
2017-11-28T09:44:46.778Z,7.40
2017-11-28T09:47:14.314Z,7.40
2017-11-28T09:49:41.897Z,7.50
2017-11-28T09:52:09.327Z,7.50
2017-11-28T09:54:36.748Z,7.60
2017-11-28T09:57:04.173Z,7.70
2017-11-28T09:59:31.591Z,7.70
2017-11-28T10:01:59.409Z,7.90
2017-11-28T10:04:26.853Z,7.90
2017-11-28T10:06:54.336Z,7.90
2017-11-28T10:09:21.778Z,7.90
2017-11-28T10:11:49.198Z,7.90
2017-11-28T10:14:16.717Z,7.90
2017-11-28T10:16:44.150Z,7.90
2017-11-28T10:19:11.575Z,7.90
2017-11-28T10:21:39.086Z,7.90
2017-11-28T10:24:06.513Z,7.80
2017-11-28T10:26:34.375Z,7.80
2017-11-28T10:29:01.846Z,7.80
2017-11-28T10:31:29.266Z,7.80
2017-11-28T10:33:56.684Z,7.80
2017-11-28T10:36:24.107Z,7.80
2017-11-28T10:38:51.541Z,7.80
2017-11-28T10:41:19.002Z,7.70
2017-11-28T10:43:47.095Z,7.70
2017-11-28T10:46:14.521Z,7.70
2017-11-28T10:48:41.994Z,7.70
2017-11-28T10:51:09.418Z,7.60
2017-11-28T10:53:37.247Z,7.50
2017-11-28T10:56:04.733Z,7.50
2017-11-28T10:58:32.258Z,7.50
2017-11-28T11:00:59.708Z,7.40
2017-11-28T11:03:27.120Z,7.40
2017-11-28T11:05:55.124Z,7.40
2017-11-28T11:08:22.948Z,7.40
2017-11-28T11:10:50.450Z,7.40
2017-11-28T11:13:18.341Z,7.30
2017-11-28T11:15:45.771Z,7.30
2017-11-28T11:18:13.669Z,7.30
2017-11-28T11:20:41.115Z,7.30
2017-11-28T11:23:08.602Z,7.30
2017-11-28T11:25:36.067Z,7.20
2017-11-28T11:28:03.513Z,7.20
2017-11-28T11:30:30.929Z,7.30
2017-11-28T11:32:58.445Z,7.30
2017-11-28T11:35:25.869Z,7.30
2017-11-28T11:37:53.684Z,7.40
2017-11-28T11:40:21.110Z,7.40
2017-11-28T11:42:49.083Z,7.50
2017-11-28T11:45:17.001Z,7.60
2017-11-28T11:47:44.419Z,7.60
2017-11-28T11:50:12.271Z,7.70
2017-11-28T11:52:40.561Z,7.70
2017-11-28T11:55:08.399Z,7.80
2017-11-28T11:57:35.937Z,7.80
2017-11-28T12:00:03.462Z,7.90
2017-11-28T12:02:30.853Z,7.90
2017-11-28T12:04:58.291Z,7.80
2017-11-28T12:07:26.113Z,7.80
2017-11-28T12:09:53.601Z,7.80
2017-11-28T12:12:21.474Z,7.70
2017-11-28T12:14:48.945Z,7.80
2017-11-28T12:17:16.353Z,7.80
2017-11-28T12:19:43.769Z,7.80
2017-11-28T12:22:11.613Z,8.00
2017-11-28T12:24:39.271Z,8.00
2017-11-28T12:27:06.695Z,8.10
2017-11-28T12:29:34.128Z,8.20
2017-11-28T12:32:01.943Z,8.30
2017-11-28T12:34:29.360Z,8.30
2017-11-28T12:36:57.195Z,8.40
2017-11-28T12:39:24.641Z,8.40
2017-11-28T12:41:52.096Z,8.40
2017-11-28T12:44:19.540Z,8.50
2017-11-28T12:46:46.957Z,8.60
2017-11-28T12:49:14.377Z,8.50
2017-11-28T12:51:43.647Z,8.50
2017-11-28T12:54:11.461Z,8.40
2017-11-28T12:56:38.890Z,8.40
2017-11-28T12:59:06.330Z,8.30
2017-11-28T13:01:34.154Z,8.30
2017-11-28T13:04:01.603Z,8.30
2017-11-28T13:06:29.036Z,8.30
2017-11-28T13:08:56.530Z,8.30
2017-11-28T13:11:23.949Z,8.30
2017-11-28T13:13:51.862Z,8.30
2017-11-28T13:16:19.314Z,8.30
2017-11-28T13:18:47.591Z,8.30
2017-11-28T13:21:15.051Z,8.30
2017-11-28T13:23:42.481Z,8.30
2017-11-28T13:26:10.286Z,8.20
2017-11-28T13:28:37.750Z,8.20
2017-11-28T13:31:05.189Z,8.30
2017-11-28T13:33:32.691Z,8.30
2017-11-28T13:36:00.110Z,8.30
2017-11-28T13:38:28.121Z,8.30
2017-11-28T13:40:55.549Z,8.30
2017-11-28T13:43:22.982Z,8.40
2017-11-28T13:45:50.415Z,8.40
2017-11-28T13:48:17.831Z,8.50
2017-11-28T13:50:45.275Z,8.60
2017-11-28T13:53:13.125Z,8.50
2017-11-28T13:55:40.559Z,8.50
2017-11-28T13:58:08.850Z,8.40
2017-11-28T14:00:36.266Z,8.40
2017-11-28T14:03:04.069Z,8.40
2017-11-28T14:05:31.518Z,8.40
2017-11-28T14:07:58.933Z,8.40
2017-11-28T14:10:26.763Z,8.20
2017-11-28T14:12:54.180Z,8.20
2017-11-28T14:15:21.989Z,8.20
2017-11-28T14:17:49.424Z,8.20
2017-11-28T14:20:22.489Z,8.10
2017-11-28T14:22:55.990Z,8.10
2017-11-28T14:25:26.903Z,8.10
2017-11-28T14:27:56.965Z,8.10
2017-11-28T14:30:44.545Z,8.10
2017-11-28T14:33:13.789Z,8.10
2017-11-28T14:35:46.049Z,8.00
2017-11-28T14:38:13.896Z,8.00
2017-11-28T14:40:42.755Z,8.00
2017-11-28T14:43:13.734Z,8.00
2017-11-28T14:45:41.662Z,8.00
2017-11-28T14:48:09.069Z,8.00
2017-11-28T14:50:54.333Z,8.00
2017-11-28T14:53:42.885Z,8.00
2017-11-28T14:56:26.872Z,7.90
2017-11-28T14:59:00.521Z,7.90
2017-11-28T15:01:43.652Z,7.90
2017-11-28T15:04:17.012Z,7.90
2017-11-28T15:07:03.082Z,7.90
2017-11-28T15:09:36.795Z,7.90
2017-11-28T15:12:20.032Z,7.90
2017-11-28T15:14:53.354Z,7.80
2017-11-28T15:17:21.682Z,7.80
2017-11-28T15:19:49.911Z,7.70
2017-11-28T15:22:34.044Z,7.70
2017-11-28T15:25:07.075Z,7.60
2017-11-28T15:27:34.494Z,7.60
2017-11-28T15:30:02.263Z,7.50
2017-11-28T15:32:29.670Z,7.40
2017-11-28T15:34:57.141Z,7.40
2017-11-28T15:37:24.586Z,7.30
2017-11-28T15:39:52.003Z,7.30
2017-11-28T15:42:19.495Z,7.20
2017-11-28T15:44:46.991Z,7.10
2017-11-28T15:47:14.410Z,7.10
2017-11-28T15:49:41.845Z,7.10
2017-11-28T15:52:09.393Z,7.00
2017-11-28T15:54:36.815Z,6.90
2017-11-28T15:57:05.027Z,6.90
2017-11-28T15:59:32.485Z,6.90
2017-11-28T16:01:59.947Z,6.80
2017-11-28T16:04:27.396Z,6.80
2017-11-28T16:06:54.820Z,6.80
2017-11-28T16:09:22.334Z,6.80
2017-11-28T16:11:49.786Z,6.80
2017-11-28T16:14:17.225Z,6.80
2017-11-28T16:16:44.817Z,6.80
2017-11-28T16:19:12.250Z,6.80
2017-11-28T16:21:39.749Z,6.70
2017-11-28T16:24:08.100Z,6.70
2017-11-28T16:26:35.531Z,6.70
2017-11-28T16:29:03.072Z,6.70
2017-11-28T16:31:30.484Z,6.60
2017-11-28T16:33:57.924Z,6.60
2017-11-28T16:36:25.364Z,6.60
2017-11-28T16:38:52.810Z,6.50
2017-11-28T16:41:20.246Z,6.50
2017-11-28T16:43:47.675Z,6.40
2017-11-28T16:46:15.501Z,6.40
2017-11-28T16:48:42.950Z,6.40
2017-11-28T16:51:10.401Z,6.30
2017-11-28T16:53:37.825Z,6.30
2017-11-28T16:56:05.650Z,6.20
2017-11-28T16:58:33.085Z,6.20
2017-11-28T17:01:00.507Z,6.10
2017-11-28T17:03:28.035Z,6.10
2017-11-28T17:05:56.437Z,6.10
2017-11-28T17:08:23.897Z,6.10
2017-11-28T17:10:51.317Z,6.10
2017-11-28T17:13:18.780Z,6.10
2017-11-28T17:15:46.215Z,6.10
2017-11-28T17:18:14.049Z,6.10
2017-11-28T17:20:41.517Z,6.10
2017-11-28T17:23:08.971Z,6.10
2017-11-28T17:25:36.441Z,6.10
2017-11-28T17:28:03.905Z,6.10
2017-11-28T17:30:31.355Z,6.10
2017-11-28T17:32:58.811Z,6.10
2017-11-28T17:35:26.265Z,6.10
2017-11-28T17:37:53.706Z,6.00
2017-11-28T17:40:21.137Z,6.00
2017-11-28T17:42:49.038Z,6.00
2017-11-28T17:45:16.453Z,6.00
2017-11-28T17:47:45.115Z,6.00
2017-11-28T17:50:12.566Z,6.00
2017-11-28T17:52:40.005Z,6.00
2017-11-28T17:55:07.488Z,6.00
2017-11-28T17:57:34.938Z,6.00
2017-11-28T18:00:02.411Z,6.00
2017-11-28T18:02:29.889Z,6.00
2017-11-28T18:04:57.357Z,6.00
2017-11-28T18:07:24.805Z,6.00
2017-11-28T18:09:52.270Z,5.90
2017-11-28T18:12:19.721Z,5.80
2017-11-28T18:14:47.182Z,5.80
2017-11-28T18:17:14.661Z,5.70
2017-11-28T18:19:42.111Z,5.70
2017-11-28T18:22:09.554Z,5.70
2017-11-28T18:24:37.400Z,5.60
2017-11-28T18:27:04.841Z,5.60
2017-11-28T18:29:32.809Z,5.50
2017-11-28T18:32:00.253Z,5.50
2017-11-28T18:34:27.720Z,5.50
2017-11-28T18:36:55.175Z,5.40
2017-11-28T18:39:22.624Z,5.40
2017-11-28T18:41:50.070Z,5.30
2017-11-28T18:44:17.521Z,5.30
2017-11-28T18:46:45.012Z,5.30
2017-11-28T18:49:12.460Z,5.20
2017-11-28T18:51:39.899Z,5.20
2017-11-28T18:54:07.347Z,5.20
2017-11-28T18:56:35.274Z,5.20
2017-11-28T18:59:02.740Z,5.20
2017-11-28T19:01:30.217Z,5.20
2017-11-28T19:03:57.653Z,5.20
2017-11-28T19:06:25.084Z,5.20
2017-11-28T19:08:52.539Z,5.20
2017-11-28T19:11:19.996Z,5.20
2017-11-28T19:13:48.765Z,5.20
2017-11-28T19:16:16.189Z,5.20
2017-11-28T19:18:43.648Z,5.20
2017-11-28T19:21:11.134Z,5.20
2017-11-28T19:23:38.582Z,5.20
2017-11-28T19:26:06.045Z,5.10
2017-11-28T19:28:33.601Z,5.10
2017-11-28T19:31:01.072Z,5.10
2017-11-28T19:33:28.498Z,5.10
2017-11-28T19:35:55.969Z,5.00
2017-11-28T19:38:23.558Z,5.00
2017-11-28T19:40:50.996Z,5.00
2017-11-28T19:43:18.457Z,4.90
2017-11-28T19:45:45.958Z,4.90
2017-11-28T19:48:13.419Z,4.80
2017-11-28T19:50:40.867Z,4.80
2017-11-28T19:53:08.493Z,4.80
2017-11-28T19:55:35.986Z,4.80
2017-11-28T19:58:03.468Z,4.70
2017-11-28T20:00:31.095Z,4.70
2017-11-28T20:02:58.547Z,4.70
2017-11-28T20:05:27.585Z,4.70
2017-11-28T20:07:55.059Z,4.70
2017-11-28T20:10:22.525Z,4.70
2017-11-28T20:12:50.102Z,4.70
2017-11-28T20:15:17.931Z,4.70
2017-11-28T20:17:45.369Z,4.70
2017-11-28T20:20:12.837Z,4.70
2017-11-28T20:22:40.269Z,4.70
2017-11-28T20:25:08.201Z,4.70
2017-11-28T20:27:35.750Z,4.80
2017-11-28T20:30:03.169Z,4.80
2017-11-28T20:32:31.012Z,4.80
2017-11-28T20:34:58.462Z,4.80
2017-11-28T20:37:26.447Z,4.80
2017-11-28T20:39:53.887Z,4.80
2017-11-28T20:42:21.365Z,4.90
2017-11-28T20:44:49.218Z,4.90
2017-11-28T20:47:16.665Z,4.90
2017-11-28T20:49:44.113Z,4.90
2017-11-28T20:52:11.551Z,4.90
2017-11-28T20:54:39.444Z,4.80
2017-11-28T20:57:06.921Z,4.80
2017-11-28T20:59:34.393Z,4.80
2017-11-28T21:02:01.824Z,4.80
2017-11-28T21:04:29.881Z,4.80
2017-11-28T21:06:57.796Z,4.80
2017-11-28T21:09:25.236Z,4.80
2017-11-28T21:11:52.670Z,4.80
2017-11-28T21:14:20.608Z,4.80
2017-11-28T21:16:48.069Z,4.80
2017-11-28T21:19:15.631Z,4.80
2017-11-28T21:21:43.233Z,4.80
2017-11-28T21:24:11.172Z,4.80
2017-11-28T21:26:38.634Z,4.80
2017-11-28T21:29:06.078Z,4.80
2017-11-28T21:31:33.689Z,4.80
2017-11-28T21:34:01.809Z,4.80
2017-11-28T21:36:31.149Z,4.80
2017-11-28T21:38:58.614Z,4.80
2017-11-28T21:41:26.060Z,4.80
2017-11-28T21:43:53.567Z,4.80
2017-11-28T21:46:21.057Z,4.70
2017-11-28T21:48:48.521Z,4.70
2017-11-28T21:51:15.981Z,4.70
2017-11-28T21:53:44.361Z,4.70
2017-11-28T21:56:11.840Z,4.60
2017-11-28T21:58:39.413Z,4.60
2017-11-28T22:01:07.054Z,4.60
2017-11-28T22:03:34.520Z,4.50
2017-11-28T22:06:01.989Z,4.50
2017-11-28T22:08:30.079Z,4.50
2017-11-28T22:10:57.526Z,4.40
2017-11-28T22:13:24.991Z,4.40
2017-11-28T22:15:52.467Z,4.40
2017-11-28T22:18:20.023Z,4.40
2017-11-28T22:20:47.498Z,4.30
2017-11-28T22:23:15.174Z,4.30
2017-11-28T22:25:42.630Z,4.30
2017-11-28T22:28:10.089Z,4.20
2017-11-28T22:30:37.617Z,4.20
2017-11-28T22:33:05.103Z,4.20
2017-11-28T22:35:32.614Z,4.20
2017-11-28T22:38:00.608Z,4.10
2017-11-28T22:40:28.118Z,4.10
2017-11-28T22:42:55.780Z,4.10
2017-11-28T22:45:23.209Z,4.10
2017-11-28T22:47:50.690Z,4.00
2017-11-28T22:50:18.164Z,4.00
2017-11-28T22:52:45.698Z,4.00
2017-11-28T22:55:13.134Z,3.90
2017-11-28T22:57:40.980Z,3.90
2017-11-28T23:00:08.407Z,3.90
2017-11-28T23:02:35.865Z,3.90
2017-11-28T23:05:03.310Z,3.80
2017-11-28T23:07:30.783Z,3.80
2017-11-28T23:09:58.271Z,3.80
2017-11-28T23:12:25.714Z,3.80
2017-11-28T23:14:53.155Z,3.80
2017-11-28T23:17:20.647Z,3.80
2017-11-28T23:19:48.086Z,3.70
2017-11-28T23:22:15.542Z,3.70
2017-11-28T23:24:43.598Z,3.70
2017-11-28T23:27:11.221Z,3.70
2017-11-28T23:29:38.635Z,3.70
2017-11-28T23:32:06.078Z,3.70
2017-11-28T23:34:33.996Z,3.70
2017-11-28T23:37:01.436Z,3.70
2017-11-28T23:39:28.900Z,3.70
2017-11-28T23:41:56.370Z,3.70
2017-11-28T23:44:23.821Z,3.70
2017-11-28T23:46:51.262Z,3.70
2017-11-28T23:49:19.169Z,3.70
2017-11-28T23:51:46.641Z,3.70
2017-11-28T23:54:14.193Z,3.80
2017-11-28T23:56:41.630Z,3.80
2017-11-28T23:59:09.070Z,3.80
